createdAt,value
2023-05-21T00:01:08.064Z,18.27
2023-05-21T00:03:35.969Z,18.19
2023-05-21T00:06:03.731Z,18.24
2023-05-21T00:08:30.981Z,18.10
2023-05-21T00:10:57.900Z,18.18
2023-05-21T00:13:24.769Z,18.13
2023-05-21T00:15:51.838Z,18.22
2023-05-21T00:18:18.621Z,18.15
2023-05-21T00:20:45.721Z,18.10
2023-05-21T00:23:12.591Z,18.10
2023-05-21T00:25:39.312Z,18.08
2023-05-21T00:28:06.090Z,18.05
2023-05-21T00:30:32.960Z,18.16
2023-05-21T00:33:02.491Z,17.97
2023-05-21T00:35:29.679Z,17.89
2023-05-21T00:37:57.220Z,17.75
2023-05-21T00:40:24.092Z,17.79
2023-05-21T00:42:50.977Z,17.79
2023-05-21T00:45:17.804Z,17.83
2023-05-21T00:47:45.899Z,17.79
2023-05-21T00:50:14.936Z,17.69
2023-05-21T00:52:43.982Z,17.78
2023-05-21T00:55:10.965Z,17.72
2023-05-21T00:57:39.535Z,17.77
2023-05-21T01:00:08.756Z,17.76
2023-05-21T01:02:37.333Z,17.73
2023-05-21T01:05:08.437Z,17.79
2023-05-21T01:07:38.919Z,17.79
2023-05-21T01:10:08.442Z,17.78
2023-05-21T01:12:35.791Z,17.94
2023-05-21T01:15:04.086Z,17.78
2023-05-21T01:17:35.559Z,17.78
2023-05-21T01:20:09.986Z,17.74
2023-05-21T01:22:41.219Z,17.71
2023-05-21T01:25:08.392Z,17.61
2023-05-21T01:27:35.163Z,17.64
2023-05-21T01:30:02.239Z,17.55
2023-05-21T01:32:50.818Z,17.66
2023-05-21T01:35:22.465Z,17.62
2023-05-21T01:37:55.719Z,17.61
2023-05-21T01:40:35.902Z,17.44
2023-05-21T01:43:05.692Z,17.49
2023-05-21T01:45:36.600Z,17.64
2023-05-21T01:48:05.843Z,17.59
2023-05-21T01:50:35.007Z,17.68
2023-05-21T01:53:03.681Z,17.52
2023-05-21T01:55:31.219Z,17.59
2023-05-21T01:58:01.758Z,17.55
2023-05-21T02:00:29.378Z,17.61
2023-05-21T02:02:56.551Z,17.64
2023-05-21T02:05:23.458Z,17.69
2023-05-21T02:07:52.077Z,17.66
2023-05-21T02:10:19.264Z,17.62
2023-05-21T02:12:46.604Z,17.62
2023-05-21T02:15:17.887Z,17.57
2023-05-21T02:17:46.254Z,17.48
2023-05-21T02:20:13.726Z,17.47
2023-05-21T02:22:41.743Z,17.40
2023-05-21T02:25:09.874Z,17.54
2023-05-21T02:27:37.821Z,17.53
2023-05-21T02:30:06.878Z,17.48
2023-05-21T02:32:34.946Z,17.52
2023-05-21T02:35:03.790Z,17.46
2023-05-21T02:37:35.927Z,17.37
2023-05-21T02:40:05.894Z,17.37
2023-05-21T02:42:39.990Z,17.39
2023-05-21T02:45:12.481Z,17.48
2023-05-21T02:47:41.981Z,17.52
2023-05-21T02:50:09.586Z,17.43
2023-05-21T02:52:43.633Z,17.38
2023-05-21T02:55:10.527Z,17.27
2023-05-21T02:57:37.340Z,17.40
2023-05-21T03:00:08.401Z,17.35
2023-05-21T03:02:35.771Z,17.20
2023-05-21T03:05:02.866Z,17.24
2023-05-21T03:07:30.758Z,17.12
2023-05-21T03:09:57.751Z,17.20
2023-05-21T03:12:24.487Z,17.31
2023-05-21T03:14:51.402Z,17.32
2023-05-21T03:17:20.575Z,17.29
2023-05-21T03:19:49.069Z,17.40
2023-05-21T03:22:16.071Z,17.23
2023-05-21T03:24:42.778Z,17.24
2023-05-21T03:27:09.544Z,17.34
2023-05-21T03:29:36.275Z,17.21
2023-05-21T03:32:03.875Z,17.18
2023-05-21T03:34:34.501Z,17.20
2023-05-21T03:37:02.421Z,17.13
2023-05-21T03:39:29.848Z,16.99
2023-05-21T03:41:57.419Z,17.16
2023-05-21T03:44:38.603Z,17.12
2023-05-21T03:47:25.351Z,17.10
2023-05-21T03:49:53.390Z,17.14
2023-05-21T03:52:20.154Z,17.13
2023-05-21T03:54:46.915Z,16.99
2023-05-21T03:57:13.664Z,17.02
2023-05-21T03:59:40.907Z,17.07
2023-05-21T04:02:07.905Z,17.12
2023-05-21T04:04:34.751Z,17.12
2023-05-21T04:07:01.575Z,16.98
2023-05-21T04:09:28.308Z,17.12
2023-05-21T04:11:55.180Z,17.03
2023-05-21T04:14:23.338Z,16.98
2023-05-21T04:16:51.923Z,17.04
2023-05-21T04:19:20.093Z,16.91
2023-05-21T04:21:47.560Z,16.93
2023-05-21T04:24:14.758Z,16.82
2023-05-21T04:27:09.860Z,16.97
2023-05-21T04:29:37.709Z,16.89
2023-05-21T04:32:05.168Z,17.00
2023-05-21T04:34:34.007Z,16.91
2023-05-21T04:37:02.332Z,17.07
2023-05-21T04:39:31.503Z,17.03
2023-05-21T04:41:58.250Z,16.99
2023-05-21T04:44:25.773Z,16.96
2023-05-21T04:46:54.751Z,16.99
2023-05-21T04:49:21.683Z,16.94
2023-05-21T04:51:49.406Z,16.98
2023-05-21T04:54:16.619Z,16.95
2023-05-21T04:56:44.466Z,17.00
2023-05-21T04:59:11.378Z,16.96
2023-05-21T05:01:38.590Z,17.06
2023-05-21T05:04:06.108Z,16.99
2023-05-21T05:06:32.858Z,16.95
2023-05-21T05:08:59.641Z,16.94
2023-05-21T05:11:26.712Z,16.86
2023-05-21T05:13:53.758Z,17.02
2023-05-21T05:16:25.325Z,17.03
2023-05-21T05:18:52.988Z,17.15
2023-05-21T05:21:22.698Z,17.10
2023-05-21T05:23:50.120Z,17.19
2023-05-21T05:26:17.315Z,16.98
2023-05-21T05:28:44.016Z,17.14
2023-05-21T05:31:11.247Z,17.15
2023-05-21T05:33:38.027Z,17.24
2023-05-21T05:36:05.092Z,17.27
2023-05-21T05:38:31.831Z,17.34
2023-05-21T05:40:58.598Z,17.19
2023-05-21T05:43:26.582Z,17.13
2023-05-21T05:45:53.707Z,17.29
2023-05-21T05:48:20.580Z,17.42
2023-05-21T05:50:47.902Z,17.34
2023-05-21T05:53:15.284Z,17.33
2023-05-21T05:55:42.089Z,17.60
2023-05-21T05:58:08.855Z,17.52
2023-05-21T06:00:48.187Z,17.74
2023-05-21T06:03:15.050Z,17.86
2023-05-21T06:05:44.906Z,18.15
2023-05-21T06:08:11.684Z,18.28
2023-05-21T06:10:38.449Z,18.35
2023-05-21T06:13:05.438Z,18.40
2023-05-21T06:15:32.214Z,18.53
2023-05-21T06:17:59.145Z,18.59
2023-05-21T06:20:26.104Z,18.54
2023-05-21T06:22:52.949Z,18.51
2023-05-21T06:25:19.848Z,18.54
2023-05-21T06:27:47.220Z,18.66
2023-05-21T06:30:19.915Z,18.82
2023-05-21T06:32:46.915Z,19.07
2023-05-21T06:35:14.849Z,19.22
2023-05-21T06:37:43.002Z,19.40
2023-05-21T06:40:10.061Z,19.51
2023-05-21T06:42:37.658Z,19.64
2023-05-21T06:45:23.252Z,19.88
2023-05-21T06:47:53.197Z,19.96
2023-05-21T06:50:20.243Z,19.90
2023-05-21T06:52:47.169Z,20.04
2023-05-21T06:55:14.265Z,20.27
2023-05-21T06:57:59.412Z,20.35
2023-05-21T07:00:26.436Z,20.49
2023-05-21T07:02:54.184Z,20.65
2023-05-21T07:05:21.063Z,20.69
2023-05-21T07:07:47.756Z,20.85
2023-05-21T07:10:14.533Z,20.89
2023-05-21T07:12:42.074Z,20.96
2023-05-21T07:15:10.921Z,21.09
2023-05-21T07:17:38.214Z,21.19
2023-05-21T07:20:08.870Z,21.07
2023-05-21T07:22:38.971Z,21.19
2023-05-21T07:25:06.802Z,21.22
2023-05-21T07:27:33.621Z,21.45
2023-05-21T07:30:00.725Z,21.64
2023-05-21T07:32:29.161Z,21.73
2023-05-21T07:34:56.637Z,21.69
2023-05-21T07:37:27.835Z,21.91
2023-05-21T07:39:57.584Z,22.00
2023-05-21T07:42:25.312Z,22.05
2023-05-21T07:44:53.296Z,22.11
2023-05-21T07:47:20.755Z,22.15
2023-05-21T07:49:47.658Z,22.31
2023-05-21T07:52:14.391Z,22.37
2023-05-21T07:54:41.435Z,22.44
2023-05-21T07:57:08.582Z,22.49
2023-05-21T07:59:51.149Z,22.58
2023-05-21T08:02:18.095Z,22.59
2023-05-21T08:04:44.848Z,22.61
2023-05-21T08:07:13.668Z,22.56
2023-05-21T08:09:40.770Z,22.68
2023-05-21T08:12:09.775Z,22.75
2023-05-21T08:14:36.661Z,22.71
2023-05-21T08:17:03.643Z,22.57
2023-05-21T08:19:31.242Z,22.68
2023-05-21T08:21:58.413Z,22.75
2023-05-21T08:24:26.320Z,22.79
2023-05-21T08:26:53.182Z,22.69
2023-05-21T08:29:20.064Z,22.78
2023-05-21T08:31:47.057Z,22.70
2023-05-21T08:34:13.895Z,22.50
2023-05-21T08:36:47.950Z,22.41
2023-05-21T08:39:37.848Z,22.23
2023-05-21T08:42:25.632Z,22.29
2023-05-21T08:45:05.634Z,22.27
2023-05-21T08:47:36.738Z,22.33
2023-05-21T08:50:08.620Z,22.21
2023-05-21T08:52:35.383Z,22.28
2023-05-21T08:55:04.663Z,22.38
2023-05-21T08:57:32.568Z,22.54
2023-05-21T08:59:59.914Z,22.44
2023-05-21T09:02:30.490Z,22.40
2023-05-21T09:04:58.976Z,22.32
2023-05-21T09:07:29.209Z,22.28
2023-05-21T09:10:27.437Z,22.29
2023-05-21T09:12:54.323Z,22.22
2023-05-21T09:15:21.650Z,22.04
2023-05-21T09:17:48.959Z,22.07
2023-05-21T09:20:33.505Z,22.00
2023-05-21T09:23:04.956Z,22.04
2023-05-21T09:25:33.193Z,22.03
2023-05-21T09:28:12.355Z,22.11
2023-05-21T09:30:53.940Z,22.18
2023-05-21T09:33:31.554Z,22.26
2023-05-21T09:35:58.609Z,22.43
2023-05-21T09:38:27.184Z,22.37
2023-05-21T09:40:57.481Z,22.44
2023-05-21T09:43:25.439Z,22.61
2023-05-21T09:46:00.481Z,22.76
2023-05-21T09:48:38.175Z,22.78
2023-05-21T09:51:14.303Z,23.00
2023-05-21T09:53:54.195Z,22.97
2023-05-21T09:56:23.416Z,23.07
2023-05-21T09:59:00.283Z,23.17
2023-05-21T10:01:28.679Z,23.20
2023-05-21T10:03:57.456Z,23.06
2023-05-21T10:06:26.747Z,23.10
2023-05-21T10:08:58.538Z,23.20
2023-05-21T10:11:29.759Z,23.13
2023-05-21T10:14:19.711Z,23.20
2023-05-21T10:16:47.515Z,23.17
2023-05-21T10:19:15.855Z,23.22
2023-05-21T10:21:43.762Z,23.25
2023-05-21T10:24:10.913Z,23.19
2023-05-21T10:26:39.615Z,23.26
2023-05-21T10:29:07.912Z,23.23
2023-05-21T10:31:35.043Z,23.28
2023-05-21T10:34:05.921Z,23.10
2023-05-21T10:36:34.186Z,23.13
2023-05-21T10:39:02.131Z,23.17
2023-05-21T10:41:46.595Z,23.17
2023-05-21T10:44:35.197Z,23.24
2023-05-21T10:47:31.791Z,23.20
2023-05-21T10:50:34.132Z,23.29
2023-05-21T10:53:28.898Z,23.38
2023-05-21T10:55:55.613Z,23.40
2023-05-21T10:58:45.302Z,23.45
2023-05-21T11:01:14.028Z,23.43
2023-05-21T11:03:41.244Z,23.48
2023-05-21T11:06:08.479Z,23.47
2023-05-21T11:08:37.047Z,23.46
2023-05-21T11:11:04.212Z,23.52
2023-05-21T11:13:49.536Z,23.50
2023-05-21T11:16:17.673Z,23.44
2023-05-21T11:18:47.434Z,23.53
2023-05-21T11:21:20.965Z,23.58
2023-05-21T11:23:53.721Z,23.54
2023-05-21T11:26:23.228Z,23.58
2023-05-21T11:29:05.015Z,23.59
2023-05-21T11:31:39.898Z,23.54
2023-05-21T11:34:29.897Z,23.64
2023-05-21T11:37:18.716Z,23.55
2023-05-21T11:39:46.391Z,23.46
2023-05-21T11:42:13.358Z,23.45
2023-05-21T11:44:41.343Z,23.46
2023-05-21T11:47:10.045Z,23.40
2023-05-21T11:49:37.486Z,23.71
2023-05-21T11:52:06.203Z,23.64
2023-05-21T11:54:36.869Z,23.65
2023-05-21T11:57:10.045Z,23.80
2023-05-21T11:59:36.993Z,23.93
2023-05-21T12:02:04.848Z,23.85
2023-05-21T12:04:38.888Z,23.90
2023-05-21T12:07:09.805Z,23.90
2023-05-21T12:09:44.517Z,23.84
2023-05-21T12:12:13.977Z,23.98
2023-05-21T12:14:45.239Z,23.99
2023-05-21T12:17:15.496Z,23.91
2023-05-21T12:19:42.848Z,24.07
2023-05-21T12:22:09.963Z,24.21
2023-05-21T12:24:38.319Z,24.20
2023-05-21T12:27:10.192Z,24.20
2023-05-21T12:29:38.583Z,24.16
2023-05-21T12:32:08.685Z,24.34
2023-05-21T12:34:40.161Z,24.20
2023-05-21T12:37:07.796Z,24.34
2023-05-21T12:39:43.107Z,24.60
2023-05-21T12:42:10.226Z,24.59
2023-05-21T12:44:39.528Z,24.65
2023-05-21T12:47:06.746Z,24.64
2023-05-21T12:49:35.912Z,24.82
2023-05-21T12:52:04.572Z,24.88
2023-05-21T12:54:38.347Z,25.01
2023-05-21T12:57:10.350Z,25.02
2023-05-21T12:59:59.798Z,25.07
2023-05-21T13:02:32.258Z,25.10
2023-05-21T13:05:01.360Z,25.19
2023-05-21T13:07:38.657Z,25.22
2023-05-21T13:10:06.900Z,25.28
2023-05-21T13:12:34.868Z,25.32
2023-05-21T13:15:04.921Z,25.36
2023-05-21T13:17:38.450Z,25.34
2023-05-21T13:20:12.193Z,25.24
2023-05-21T13:22:45.077Z,25.37
2023-05-21T13:25:16.708Z,25.46
2023-05-21T13:27:43.948Z,25.70
2023-05-21T13:30:11.772Z,25.80
2023-05-21T13:32:39.993Z,25.79
2023-05-21T13:35:07.501Z,25.70
2023-05-21T13:37:37.723Z,25.70
2023-05-21T13:40:06.329Z,25.65
2023-05-21T13:42:34.067Z,25.66
2023-05-21T13:45:00.960Z,25.65
2023-05-21T13:47:30.552Z,25.69
2023-05-21T13:49:57.721Z,25.76
2023-05-21T13:52:24.832Z,25.64
2023-05-21T13:54:51.677Z,25.60
2023-05-21T13:57:18.589Z,25.55
2023-05-21T13:59:45.475Z,25.56
2023-05-21T14:02:12.288Z,25.57
2023-05-21T14:04:39.606Z,25.40
2023-05-21T14:07:07.073Z,25.42
2023-05-21T14:09:34.081Z,25.41
2023-05-21T14:12:01.553Z,25.37
2023-05-21T14:14:28.384Z,25.35
2023-05-21T14:16:55.133Z,25.38
2023-05-21T14:19:22.067Z,25.38
2023-05-21T14:21:52.146Z,25.40
2023-05-21T14:24:19.284Z,25.46
2023-05-21T14:26:46.108Z,25.49
2023-05-21T14:29:12.790Z,25.53
2023-05-21T14:31:39.587Z,25.56
2023-05-21T14:34:09.303Z,25.63
2023-05-21T14:36:36.448Z,25.72
2023-05-21T14:39:03.625Z,25.70
2023-05-21T14:41:30.526Z,25.80
2023-05-21T14:43:57.354Z,25.76
2023-05-21T14:46:24.172Z,25.81
2023-05-21T14:48:50.875Z,25.85
2023-05-21T14:51:17.901Z,25.97
2023-05-21T14:53:44.894Z,26.08
2023-05-21T14:56:11.704Z,26.11
2023-05-21T14:58:38.642Z,26.31
2023-05-21T15:01:05.758Z,26.53
2023-05-21T15:03:32.847Z,26.74
2023-05-21T15:05:59.788Z,26.99
2023-05-21T15:08:26.550Z,27.11
2023-05-21T15:10:53.358Z,27.33
2023-05-21T15:13:21.293Z,27.46
2023-05-21T15:15:49.611Z,27.83
2023-05-21T15:18:16.440Z,28.13
2023-05-21T15:20:43.241Z,28.36
2023-05-21T15:23:16.634Z,28.64
2023-05-21T15:25:45.069Z,29.06
2023-05-21T15:28:12.221Z,30.08
2023-05-21T15:30:39.547Z,30.92
2023-05-21T15:33:06.422Z,31.68
2023-05-21T15:35:33.500Z,32.20
2023-05-21T15:38:00.547Z,32.36
2023-05-21T15:40:27.492Z,31.54
2023-05-21T15:42:54.488Z,30.63
2023-05-21T15:45:21.325Z,29.87
2023-05-21T15:47:48.079Z,29.01
2023-05-21T15:50:14.985Z,28.67
2023-05-21T15:52:42.315Z,28.37
2023-05-21T15:55:09.639Z,28.13
2023-05-21T15:57:36.628Z,27.97
2023-05-21T16:00:04.907Z,27.74
2023-05-21T16:02:35.659Z,27.55
2023-05-21T16:05:02.576Z,27.35
2023-05-21T16:07:30.171Z,27.27
2023-05-21T16:09:56.947Z,27.12
2023-05-21T16:12:23.730Z,27.06
2023-05-21T16:14:50.537Z,26.99
2023-05-21T16:17:18.322Z,26.83
2023-05-21T16:19:45.286Z,26.73
2023-05-21T16:22:12.056Z,26.67
2023-05-21T16:24:38.836Z,26.63
2023-05-21T16:27:05.823Z,26.66
2023-05-21T16:29:32.556Z,26.67
2023-05-21T16:31:59.344Z,26.62
2023-05-21T16:34:26.203Z,26.57
2023-05-21T16:36:52.920Z,26.54
2023-05-21T16:39:19.838Z,26.51
2023-05-21T16:41:46.626Z,26.44
2023-05-21T16:44:14.431Z,26.46
2023-05-21T16:46:41.662Z,26.52
2023-05-21T16:49:08.528Z,26.54
2023-05-21T16:51:35.381Z,26.40
2023-05-21T16:54:04.156Z,26.45
2023-05-21T16:56:32.036Z,26.39
2023-05-21T16:58:59.334Z,26.32
2023-05-21T17:01:26.260Z,26.36
2023-05-21T17:03:54.273Z,26.28
2023-05-21T17:06:21.313Z,26.23
2023-05-21T17:08:48.145Z,26.18
2023-05-21T17:11:15.078Z,26.12
2023-05-21T17:13:42.067Z,26.05
2023-05-21T17:16:08.941Z,25.98
2023-05-21T17:18:35.779Z,25.91
2023-05-21T17:21:03.945Z,25.90
2023-05-21T17:23:30.794Z,25.80
2023-05-21T17:25:57.576Z,25.74
2023-05-21T17:28:24.447Z,25.69
2023-05-21T17:30:51.542Z,25.64
2023-05-21T17:33:19.121Z,25.54
2023-05-21T17:35:46.029Z,25.46
2023-05-21T17:38:14.082Z,25.39
2023-05-21T17:40:40.934Z,25.33
2023-05-21T17:43:07.696Z,25.24
2023-05-21T17:45:34.593Z,25.15
2023-05-21T17:48:01.510Z,25.14
2023-05-21T17:50:28.603Z,25.12
2023-05-21T17:52:55.362Z,25.13
2023-05-21T17:55:22.228Z,25.13
2023-05-21T17:57:49.017Z,25.05
2023-05-21T18:00:16.135Z,25.07
2023-05-21T18:02:43.090Z,25.08
2023-05-21T18:05:10.351Z,25.04
2023-05-21T18:07:38.190Z,25.04
2023-05-21T18:10:05.792Z,25.06
2023-05-21T18:12:32.587Z,25.03
2023-05-21T18:14:59.567Z,25.03
2023-05-21T18:17:26.377Z,25.10
2023-05-21T18:19:53.199Z,25.01
2023-05-21T18:22:19.969Z,25.00
2023-05-21T18:24:46.758Z,24.89
2023-05-21T18:27:13.594Z,24.85
2023-05-21T18:29:40.553Z,24.79
2023-05-21T18:32:08.092Z,24.73
2023-05-21T18:34:34.968Z,24.55
2023-05-21T18:37:01.711Z,24.45
2023-05-21T18:39:28.459Z,24.33
2023-05-21T18:42:11.485Z,24.27
2023-05-21T18:44:39.455Z,24.25
2023-05-21T18:47:07.564Z,24.22
2023-05-21T18:49:35.726Z,24.15
2023-05-21T18:52:02.612Z,24.14
2023-05-21T18:54:29.306Z,24.13
2023-05-21T18:56:59.556Z,24.05
2023-05-21T18:59:27.189Z,24.00
2023-05-21T19:01:56.017Z,23.89
2023-05-21T19:04:23.322Z,23.88
2023-05-21T19:06:50.066Z,23.82
2023-05-21T19:09:16.917Z,23.72
2023-05-21T19:11:43.886Z,23.71
2023-05-21T19:14:10.844Z,23.65
2023-05-21T19:16:37.773Z,23.72
2023-05-21T19:19:04.629Z,23.67
2023-05-21T19:21:32.250Z,23.63
2023-05-21T19:23:59.086Z,23.59
2023-05-21T19:26:26.007Z,23.53
2023-05-21T19:28:54.597Z,23.49
2023-05-21T19:31:22.565Z,23.48
2023-05-21T19:33:49.452Z,23.47
2023-05-21T19:36:16.323Z,23.42
2023-05-21T19:38:50.146Z,23.44
2023-05-21T19:41:17.856Z,23.40
2023-05-21T19:43:45.296Z,23.40
2023-05-21T19:46:12.218Z,23.39
2023-05-21T19:48:39.047Z,23.38
2023-05-21T19:51:05.928Z,23.33
2023-05-21T19:53:32.678Z,23.27
2023-05-21T19:55:59.799Z,23.24
2023-05-21T19:58:29.379Z,23.28
2023-05-21T20:00:58.366Z,23.24
2023-05-21T20:03:26.673Z,23.19
2023-05-21T20:05:53.872Z,23.18
2023-05-21T20:08:21.319Z,23.14
2023-05-21T20:10:51.461Z,23.14
2023-05-21T20:13:19.212Z,23.10
2023-05-21T20:15:48.011Z,23.10
2023-05-21T20:18:15.477Z,23.09
2023-05-21T20:20:43.221Z,23.07
2023-05-21T20:23:09.990Z,23.03
2023-05-21T20:25:36.769Z,22.97
2023-05-21T20:28:05.029Z,22.90
2023-05-21T20:30:33.703Z,22.86
2023-05-21T20:33:01.921Z,22.86
2023-05-21T20:35:29.312Z,22.81
2023-05-21T20:37:56.218Z,22.82
2023-05-21T20:40:23.014Z,22.81
2023-05-21T20:42:53.423Z,22.78
2023-05-21T20:45:20.941Z,22.73
2023-05-21T20:47:49.689Z,22.71
2023-05-21T20:50:17.715Z,22.68
2023-05-21T20:52:47.153Z,22.65
2023-05-21T20:55:14.618Z,22.64
2023-05-21T20:57:42.019Z,22.65
2023-05-21T21:00:12.754Z,22.62
2023-05-21T21:02:39.643Z,22.63
2023-05-21T21:05:10.208Z,22.60
2023-05-21T21:07:37.656Z,22.61
2023-05-21T21:10:05.454Z,22.56
2023-05-21T21:12:32.328Z,22.55
2023-05-21T21:14:59.075Z,22.55
2023-05-21T21:17:25.786Z,22.55
2023-05-21T21:19:52.536Z,22.53
2023-05-21T21:22:19.458Z,22.54
2023-05-21T21:24:46.913Z,22.50
2023-05-21T21:27:13.721Z,22.48
2023-05-21T21:29:40.512Z,22.47
2023-05-21T21:32:07.894Z,22.46
2023-05-21T21:34:35.912Z,22.47
2023-05-21T21:37:02.957Z,22.48
2023-05-21T21:39:29.746Z,22.58
2023-05-21T21:41:56.595Z,22.41
2023-05-21T21:44:23.367Z,22.21
2023-05-21T21:46:50.122Z,22.29
2023-05-21T21:49:17.443Z,22.21
2023-05-21T21:51:45.109Z,22.18
2023-05-21T21:54:12.248Z,22.23
2023-05-21T21:56:38.981Z,22.19
2023-05-21T21:59:06.387Z,22.21
2023-05-21T22:01:33.453Z,22.14
2023-05-21T22:04:00.271Z,22.12
2023-05-21T22:06:27.762Z,22.09
2023-05-21T22:08:54.812Z,22.09
2023-05-21T22:11:21.935Z,22.09
2023-05-21T22:13:48.858Z,22.13
2023-05-21T22:16:15.737Z,22.13
2023-05-21T22:18:42.801Z,22.10
2023-05-21T22:21:10.804Z,22.08
2023-05-21T22:23:38.503Z,22.09
2023-05-21T22:26:06.287Z,22.00
2023-05-21T22:28:33.194Z,21.97
2023-05-21T22:30:59.994Z,21.87
2023-05-21T22:33:26.955Z,21.83
2023-05-21T22:35:54.367Z,21.75
2023-05-21T22:38:21.429Z,21.69
2023-05-21T22:40:48.514Z,21.75
2023-05-21T22:43:15.265Z,21.76
2023-05-21T22:45:42.443Z,21.79
2023-05-21T22:48:09.344Z,21.71
2023-05-21T22:50:38.275Z,21.68
2023-05-21T22:53:06.053Z,21.69
2023-05-21T22:55:32.797Z,21.68
2023-05-21T22:57:59.513Z,21.59
2023-05-21T23:00:26.495Z,21.51
2023-05-21T23:02:54.571Z,21.50
2023-05-21T23:05:22.021Z,21.39
2023-05-21T23:07:49.071Z,21.48
2023-05-21T23:10:15.902Z,21.46
2023-05-21T23:12:42.637Z,21.47
2023-05-21T23:15:10.255Z,21.50
2023-05-21T23:17:37.863Z,21.51
2023-05-21T23:20:06.086Z,21.43
2023-05-21T23:22:32.892Z,21.47
2023-05-21T23:24:59.726Z,21.37
2023-05-21T23:27:26.567Z,21.31
2023-05-21T23:29:53.390Z,21.32
2023-05-21T23:32:20.241Z,21.20
2023-05-21T23:34:47.202Z,21.22
2023-05-21T23:37:14.154Z,21.19
2023-05-21T23:39:40.873Z,21.08
2023-05-21T23:42:07.870Z,21.15
2023-05-21T23:44:34.795Z,21.17
2023-05-21T23:47:01.579Z,21.16
2023-05-21T23:49:28.381Z,21.16
2023-05-21T23:51:55.382Z,21.16
2023-05-21T23:54:22.360Z,21.20
2023-05-21T23:56:49.140Z,21.19
2023-05-21T23:59:18.373Z,21.19
